Observation data for Northwest Lubbock on 07/20/2019      Previous  Date       Current Mesonet Observations  Soil Data  Daily Summary Page  Observations in Plain Language
KLBW 200500Z 18015G22KT 30/11 A2995 RMK A01 T03030105  RH  030%=      5-min Rain = 0
KLBW 200505Z 17013G19KT 30/10 A2995 RMK A01 T03020104  RH  030%=      5-min Rain = 0
KLBW 200510Z 17015G20KT 30/10 A2995 RMK A01 T03000104  RH  031%=      5-min Rain = 0
KLBW 200515Z 17013G20KT 30/10 A2995 RMK A01 T03000103  RH  031%=      5-min Rain = 0
KLBW 200520Z 18014G22KT 30/10 A2995 RMK A01 T02990103  RH  031%=      5-min Rain = 0
KLBW 200525Z 18015G22KT 30/10 A2996 RMK A01 T02980103  RH  031%=      5-min Rain = 0
KLBW 200530Z 17014G20KT 30/10 A2996 RMK A01 T02970103  RH  031%=      5-min Rain = 0
KLBW 200535Z 17014G20KT 30/10 A2996 RMK A01 T02950104  RH  031%=      5-min Rain = 0
KLBW 200540Z 17015G23KT 30/10 A2996 RMK A01 T02950104  RH  032%=      5-min Rain = 0
KLBW 200545Z 17013G24KT 29/11 A2996 RMK A01 T02930105  RH  032%=      5-min Rain = 0
KLBW 200550Z 17014G20KT 29/11 A2996 RMK A01 T02920105  RH  032%=      5-min Rain = 0
KLBW 200555Z 18015G21KT 29/11 A2996 RMK A01 T02920105  RH  032%=      5-min Rain = 0
KLBW 200600Z 18013G18KT 29/11 A2996 RMK A01 T02900106  RH  033%=      5-min Rain = 0
KLBW 200605Z 18012G19KT 29/11 A2996 RMK A01 T02880106  RH  033%=      5-min Rain = 0
KLBW 200610Z 17015G22KT 29/11 A2996 RMK A01 T02890106  RH  033%=      5-min Rain = 0
KLBW 200615Z 18013G22KT 29/11 A2996 RMK A01 T02880107  RH  034%=      5-min Rain = 0
KLBW 200620Z 17014G19KT 29/11 A2996 RMK A01 T02870108  RH  034%=      5-min Rain = 0
KLBW 200625Z 18013G23KT 29/11 A2996 RMK A01 T02860109  RH  034%=      5-min Rain = 0
KLBW 200630Z 18012G18KT 28/11 A2996 RMK A01 T02840109  RH  035%=      5-min Rain = 0
KLBW 200635Z 18014G19KT 28/11 A2996 RMK A01 T02840109  RH  035%=      5-min Rain = 0
KLBW 200640Z 18013G21KT 28/11 A2996 RMK A01 T02830110  RH  035%=      5-min Rain = 0
KLBW 200645Z 18014G19KT 28/11 A2996 RMK A01 T02830110  RH  035%=      5-min Rain = 0
KLBW 200650Z 18013G20KT 28/11 A2996 RMK A01 T02820111  RH  036%=      5-min Rain = 0
KLBW 200655Z 18014G19KT 28/11 A2996 RMK A01 T02810111  RH  036%=      5-min Rain = 0
KLBW 200700Z 18012G18KT 28/11 A2996 RMK A01 T02810112  RH  036%=      5-min Rain = 0
KLBW 200705Z 18012G18KT 28/11 A2996 RMK A01 T02790113  RH  037%=      5-min Rain = 0
KLBW 200710Z 18013G19KT 28/11 A2996 RMK A01 T02790113  RH  037%=      5-min Rain = 0
KLBW 200715Z 18015G20KT 28/11 A2996 RMK A01 T02790114  RH  037%=      5-min Rain = 0
KLBW 200720Z 18014G20KT 28/11 A2996 RMK A01 T02780114  RH  037%=      5-min Rain = 0
KLBW 200725Z 18012G17KT 28/12 A2996 RMK A01 T02780115  RH  038%=      5-min Rain = 0
KLBW 200730Z 18011G16KT 28/12 A2996 RMK A01 T02760115  RH  038%=      5-min Rain = 0
KLBW 200735Z 18011G20KT 28/12 A2996 RMK A01 T02750116  RH  038%=      5-min Rain = 0
KLBW 200740Z 18011KT 27/12 A2996 RMK A01 T02740116  RH  039%=      5-min Rain = 0
KLBW 200745Z 18013G19KT 27/12 A2996 RMK A01 T02740116  RH  039%=      5-min Rain = 0
KLBW 200750Z 18011KT 27/12 A2996 RMK A01 T02740117  RH  039%=      5-min Rain = 0
KLBW 200755Z 18011G16KT 27/12 A2996 RMK A01 T02720117  RH  039%=      5-min Rain = 0
KLBW 200800Z 19011KT 27/12 A2996 RMK A01 T02720117  RH  040%=      5-min Rain = 0
KLBW 200805Z 18010G17KT 27/12 A2996 RMK A01 T02700117  RH  040%=      5-min Rain = 0
KLBW 200810Z 19011G16KT 27/12 A2996 RMK A01 T02700117  RH  040%=      5-min Rain = 0
KLBW 200815Z 18012G17KT 27/12 A2996 RMK A01 T02700117  RH  040%=      5-min Rain = 0
KLBW 200820Z 19010KT 27/12 A2995 RMK A01 T02690118  RH  040%=      5-min Rain = 0
KLBW 200825Z 18012KT 27/12 A2995 RMK A01 T02690118  RH  040%=      5-min Rain = 0
KLBW 200830Z 18011KT 27/12 A2995 RMK A01 T02680118  RH  041%=      5-min Rain = 0
KLBW 200835Z 18011KT 27/12 A2995 RMK A01 T02680118  RH  041%=      5-min Rain = 0
KLBW 200840Z 18011G17KT 27/12 A2995 RMK A01 T02670118  RH  041%=      5-min Rain = 0
KLBW 200845Z 18012KT 27/12 A2995 RMK A01 T02670118  RH  041%=      5-min Rain = 0
KLBW 200850Z 18009KT 27/12 A2996 RMK A01 T02650118  RH  041%=      5-min Rain = 0
KLBW 200855Z 19010KT 26/12 A2996 RMK A01 T02640118  RH  042%=      5-min Rain = 0
KLBW 200900Z 18009G14KT 26/12 A2996 RMK A01 T02640118  RH  042%=      5-min Rain = 0
KLBW 200905Z 17010KT 26/12 A2996 RMK A01 T02630119  RH  042%=      5-min Rain = 0
KLBW 200910Z 17010G15KT 26/12 A2996 RMK A01 T02630119  RH  042%=      5-min Rain = 0
KLBW 200915Z 17012G18KT 26/12 A2996 RMK A01 T02620120  RH  043%=      5-min Rain = 0
KLBW 200920Z 17010G16KT 26/12 A2996 RMK A01 T02610120  RH  043%=      5-min Rain = 0
KLBW 200925Z 18010G15KT 26/12 A2996 RMK A01 T02600120  RH  043%=      5-min Rain = 0
KLBW 200930Z 17011G17KT 26/12 A2995 RMK A01 T02600121  RH  043%=      5-min Rain = 0
KLBW 200935Z 18010G16KT 26/12 A2996 RMK A01 T02590121  RH  044%=      5-min Rain = 0
KLBW 200940Z 17010KT 26/12 A2995 RMK A01 T02570121  RH  044%=      5-min Rain = 0
KLBW 200945Z 17010G15KT 26/12 A2995 RMK A01 T02570120  RH  044%=      5-min Rain = 0
KLBW 200950Z 17009KT 26/12 A2995 RMK A01 T02550121  RH  045%=      5-min Rain = 0
KLBW 200955Z 17010G15KT 26/12 A2996 RMK A01 T02550121  RH  045%=      5-min Rain = 0
KLBW 201000Z 17010KT 26/12 A2996 RMK A01 T02550121  RH  045%=      5-min Rain = 0
KLBW 201005Z 17010G15KT 25/12 A2995 RMK A01 T02530122  RH  046%=      5-min Rain = 0
KLBW 201010Z 17011KT 25/12 A2995 RMK A01 T02530122  RH  046%=      5-min Rain = 0
KLBW 201015Z 17010KT 25/12 A2995 RMK A01 T02520123  RH  046%=      5-min Rain = 0
KLBW 201020Z 17011G16KT 25/12 A2995 RMK A01 T02510124  RH  047%=      5-min Rain = 0
KLBW 201025Z 17010G15KT 25/12 A2996 RMK A01 T02500124  RH  047%=      5-min Rain = 0
KLBW 201030Z 17010KT 25/13 A2996 RMK A01 T02490125  RH  048%=      5-min Rain = 0
KLBW 201035Z 17011G16KT 25/13 A2996 RMK A01 T02490127  RH  048%=      5-min Rain = 0
KLBW 201040Z 17010G15KT 25/13 A2996 RMK A01 T02490128  RH  049%=      5-min Rain = 0
KLBW 201045Z 17010G15KT 25/13 A2996 RMK A01 T02470128  RH  049%=      5-min Rain = 0
KLBW 201050Z 16010G16KT 25/13 A2996 RMK A01 T02460129  RH  050%=      5-min Rain = 0
KLBW 201055Z 17009G14KT 25/13 A2996 RMK A01 T02450129  RH  050%=      5-min Rain = 0
KLBW 201100Z 17010G15KT 24/13 A2996 RMK A01 T02440131  RH  051%=      5-min Rain = 0
KLBW 201105Z 17009KT 24/13 A2996 RMK A01 T02430132  RH  052%=      5-min Rain = 0
KLBW 201110Z 17010G15KT 24/13 A2996 RMK A01 T02430133  RH  052%=      5-min Rain = 0
KLBW 201115Z 17010G18KT 24/13 A2996 RMK A01 T02420133  RH  053%=      5-min Rain = 0
KLBW 201120Z 17010G16KT 24/13 A2995 RMK A01 T02420134  RH  053%=      5-min Rain = 0
KLBW 201125Z 17010G15KT 24/13 A2996 RMK A01 T02410134  RH  054%=      5-min Rain = 0
KLBW 201130Z 17010G15KT 24/14 A2996 RMK A01 T02400135  RH  054%=      5-min Rain = 0
KLBW 201135Z 17010G15KT 24/14 A2996 RMK A01 T02400135  RH  054%=      5-min Rain = 0
KLBW 201140Z 17009KT 24/14 A2996 RMK A01 T02390136  RH  055%=      5-min Rain = 0
KLBW 201145Z 17011KT 24/14 A2996 RMK A01 T02380136  RH  055%=      5-min Rain = 0
KLBW 201150Z 16010KT 24/14 A2996 RMK A01 T02380137  RH  055%=      5-min Rain = 0
KLBW 201155Z 17009G14KT 24/14 A2996 RMK A01 T02370138  RH  056%=      5-min Rain = 0
KLBW 201200Z 17008KT 24/14 A2996 RMK A01 T02360138  RH  056%=      5-min Rain = 0
KLBW 201205Z 16009G15KT 24/14 A2996 RMK A01 T02360139  RH  057%=      5-min Rain = 0
KLBW 201210Z 16009G14KT 24/14 A2996 RMK A01 T02360140  RH  057%=      5-min Rain = 0
KLBW 201215Z 17010G15KT 24/14 A2996 RMK A01 T02360141  RH  057%=      5-min Rain = 0
KLBW 201220Z 16009KT 24/14 A2996 RMK A01 T02360141  RH  058%=      5-min Rain = 0
KLBW 201225Z 16009KT 24/14 A2996 RMK A01 T02360142  RH  058%=      5-min Rain = 0
KLBW 201230Z 17009KT 24/14 A2996 RMK A01 T02370143  RH  058%=      5-min Rain = 0
KLBW 201235Z 17009G15KT 24/14 A2996 RMK A01 T02390144  RH  058%=      5-min Rain = 0
KLBW 201240Z 17011G17KT 24/14 A2996 RMK A01 T02400144  RH  057%=      5-min Rain = 0
KLBW 201245Z 17009KT 24/15 A2996 RMK A01 T02410145  RH  057%=      5-min Rain = 0
KLBW 201250Z 16010KT 24/15 A2996 RMK A01 T02420146  RH  057%=      5-min Rain = 0
KLBW 201255Z 17010G15KT 24/15 A2996 RMK A01 T02430147  RH  057%=      5-min Rain = 0
KLBW 201300Z 17009KT 25/15 A2997 RMK A01 T02450148  RH  057%=      5-min Rain = 0
KLBW 201305Z 17010KT 25/15 A2997 RMK A01 T02460148  RH  057%=      5-min Rain = 0
KLBW 201310Z 17010KT 25/15 A2997 RMK A01 T02480149  RH  057%=      5-min Rain = 0
KLBW 201315Z 18010KT 25/15 A2997 RMK A01 T02490150  RH  057%=      5-min Rain = 0
KLBW 201320Z 18009G14KT 25/15 A2997 RMK A01 T02510151  RH  056%=      5-min Rain = 0
KLBW 201325Z 18009G14KT 25/15 A2997 RMK A01 T02530152  RH  056%=      5-min Rain = 0
KLBW 201330Z 17010G16KT 25/15 A2997 RMK A01 T02540152  RH  056%=      5-min Rain = 0
KLBW 201335Z 17009G14KT 26/15 A2997 RMK A01 T02560153  RH  055%=      5-min Rain = 0
KLBW 201340Z 17012KT 26/15 A2997 RMK A01 T02580153  RH  055%=      5-min Rain = 0
KLBW 201345Z 18011KT 26/15 A2997 RMK A01 T02590153  RH  054%=      5-min Rain = 0
KLBW 201350Z 18012KT 26/15 A2997 RMK A01 T02610153  RH  054%=      5-min Rain = 0
KLBW 201355Z 17013G19KT 26/15 A2997 RMK A01 T02620153  RH  054%=      5-min Rain = 0
KLBW 201400Z 17012G17KT 26/16 A2997 RMK A01 T02640155  RH  053%=      5-min Rain = 0
KLBW 201405Z 18013G19KT 27/15 A2997 RMK A01 T02660154  RH  053%=      5-min Rain = 0
KLBW 201410Z 18013G19KT 27/16 A2997 RMK A01 T02670155  RH  052%=      5-min Rain = 0
KLBW 201415Z 18015G21KT 27/15 A2997 RMK A01 T02670154  RH  052%=      5-min Rain = 0
KLBW 201420Z 18014KT 27/16 A2997 RMK A01 T02690155  RH  052%=      5-min Rain = 0
KLBW 201425Z 18012KT 27/16 A2997 RMK A01 T02740156  RH  051%=      5-min Rain = 0
KLBW 201430Z 17012G18KT 28/16 A2997 RMK A01 T02780156  RH  050%=      5-min Rain = 0
KLBW 201435Z 18011G19KT 28/16 A2997 RMK A01 T02790156  RH  049%=      5-min Rain = 0
KLBW 201440Z 17012G17KT 28/16 A2997 RMK A01 T02800156  RH  049%=      5-min Rain = 0
KLBW 201445Z 18011G19KT 28/16 A2997 RMK A01 T02820157  RH  049%=      5-min Rain = 0
KLBW 201450Z 17014KT 28/16 A2997 RMK A01 T02820155  RH  048%=      5-min Rain = 0
KLBW 201455Z 18011G21KT 28/16 A2997 RMK A01 T02840156  RH  048%=      5-min Rain = 0
KLBW 201500Z 17013KT 29/16 A2997 RMK A01 T02860156  RH  047%=      5-min Rain = 0
KLBW 201505Z 17014G19KT 28/16 A2997 RMK A01 T02840156  RH  048%=      5-min Rain = 0
KLBW 201510Z 18013KT 29/16 A2997 RMK A01 T02860156  RH  047%=      5-min Rain = 0
KLBW 201515Z 17013G18KT 29/16 A2997 RMK A01 T02890156  RH  047%=      5-min Rain = 0
KLBW 201520Z 18011G17KT 29/16 A2997 RMK A01 T02900157  RH  047%=      5-min Rain = 0
KLBW 201525Z 18010G15KT 30/16 A2997 RMK A01 T02960157  RH  045%=      5-min Rain = 0
KLBW 201530Z 17010KT 30/16 A2996 RMK A01 T02970157  RH  045%=      5-min Rain = 0
KLBW 201535Z 18011G17KT 30/16 A2996 RMK A01 T03000158  RH  044%=      5-min Rain = 0
KLBW 201540Z 19012KT 30/16 A2996 RMK A01 T02990156  RH  044%=      5-min Rain = 0
KLBW 201545Z 19013KT 30/16 A2996 RMK A01 T03020156  RH  043%=      5-min Rain = 0
KLBW 201550Z 18011G18KT 30/16 A2996 RMK A01 T03030156  RH  043%=      5-min Rain = 0
KLBW 201555Z 18013KT 30/16 A2996 RMK A01 T03030156  RH  043%=      5-min Rain = 0
KLBW 201600Z 19010G15KT 31/16 A2996 RMK A01 T03060158  RH  043%=      5-min Rain = 0
KLBW 201605Z 18010G15KT 31/16 A2996 RMK A01 T03130159  RH  041%=      5-min Rain = 0
KLBW 201610Z 19010G15KT 31/16 A2996 RMK A01 T03110158  RH  041%=      5-min Rain = 0
KLBW 201615Z 17012KT 31/16 A2996 RMK A01 T03120157  RH  041%=      5-min Rain = 0
KLBW 201620Z 18011KT 31/16 A2996 RMK A01 T03140156  RH  040%=      5-min Rain = 0
KLBW 201625Z 17011KT 31/16 A2996 RMK A01 T03130156  RH  040%=      5-min Rain = 0
KLBW 201630Z 18011G16KT 32/16 A2996 RMK A01 T03160157  RH  040%=      5-min Rain = 0
KLBW 201635Z 18010KT 32/16 A2996 RMK A01 T03220158  RH  039%=      5-min Rain = 0
KLBW 201640Z 18010KT 32/16 A2996 RMK A01 T03230156  RH  038%=      5-min Rain = 0
KLBW 201645Z 17010G15KT 32/16 A2996 RMK A01 T03240156  RH  038%=      5-min Rain = 0
KLBW 201650Z 19011G17KT 32/16 A2996 RMK A01 T03240156  RH  038%=      5-min Rain = 0
KLBW 201655Z 19010KT 33/16 A2996 RMK A01 T03250156  RH  038%=      5-min Rain = 0
KLBW 201700Z 19010KT 33/16 A2996 RMK A01 T03310157  RH  037%=      5-min Rain = 0
KLBW 201705Z 19011G17KT 33/16 A2996 RMK A01 T03290156  RH  037%=      5-min Rain = 0
KLBW 201710Z 17012KT 33/16 A2996 RMK A01 T03330156  RH  036%=      5-min Rain = 0
KLBW 201715Z 19011G16KT 33/16 A2996 RMK A01 T03300155  RH  037%=      5-min Rain = 0
KLBW 201720Z 17011G16KT 33/16 A2996 RMK A01 T03320155  RH  036%=      5-min Rain = 0
KLBW 201725Z 18012G17KT 34/16 A2996 RMK A01 T03350155  RH  036%=      5-min Rain = 0
KLBW 201730Z 18013KT 33/15 A2996 RMK A01 T03330154  RH  036%=      5-min Rain = 0
KLBW 201735Z 17011G16KT 34/16 A2996 RMK A01 T03390156  RH  035%=      5-min Rain = 0
KLBW 201740Z 18011G16KT 34/16 A2996 RMK A01 T03420155  RH  034%=      5-min Rain = 0
KLBW 201745Z 16010G15KT 34/15 A2996 RMK A01 T03380154  RH  035%=      5-min Rain = 0
KLBW 201750Z 17012KT 35/16 A2996 RMK A01 T03450155  RH  034%=      5-min Rain = 0
KLBW 201755Z 18010G15KT 35/16 A2996 RMK A01 T03480155  RH  033%=      5-min Rain = 0
KLBW 201800Z 18008G13KT 35/15 A2995 RMK A01 T03480153  RH  033%=      5-min Rain = 0
KLBW 201805Z 17009G15KT 35/15 A2995 RMK A01 T03530153  RH  032%=      5-min Rain = 0
KLBW 201810Z 17008G16KT 36/15 A2995 RMK A01 T03580153  RH  031%=      5-min Rain = 0
KLBW 201815Z 18011G16KT 35/15 A2995 RMK A01 T03540151  RH  031%=      5-min Rain = 0
KLBW 201820Z 17011KT 35/15 A2995 RMK A01 T03500150  RH  032%=      5-min Rain = 0
KLBW 201825Z 18010G15KT 36/15 A2995 RMK A01 T03570150  RH  030%=      5-min Rain = 0
KLBW 201830Z 18011G16KT 36/15 A2995 RMK A01 T03560149  RH  030%=      5-min Rain = 0
KLBW 201835Z 19010G16KT 36/15 A2995 RMK A01 T03560146  RH  030%=      5-min Rain = 0
KLBW 201840Z 19011KT 36/15 A2995 RMK A01 T03580148  RH  030%=      5-min Rain = 0
KLBW 201845Z 18010KT 36/15 A2995 RMK A01 T03590148  RH  030%=      5-min Rain = 0
KLBW 201850Z 19010G15KT 36/15 A2994 RMK A01 T03620146  RH  029%=      5-min Rain = 0
KLBW 201855Z 19010G16KT 36/15 A2994 RMK A01 T03640146  RH  028%=      5-min Rain = 0
KLBW 201900Z 19009KT 36/15 A2994 RMK A01 T03630145  RH  028%=      5-min Rain = 0
KLBW 201905Z 19009G14KT 36/15 A2994 RMK A01 T03640147  RH  029%=      5-min Rain = 0
KLBW 201910Z 19010G16KT 37/14 A2994 RMK A01 T03670144  RH  028%=      5-min Rain = 0
KLBW 201915Z 17010G15KT 37/14 A2993 RMK A01 T03690143  RH  027%=      5-min Rain = 0
KLBW 201920Z 19010G15KT 37/14 A2993 RMK A01 T03710141  RH  027%=      5-min Rain = 0
KLBW 201925Z 18009G14KT 37/14 A2993 RMK A01 T03690143  RH  027%=      5-min Rain = 0
KLBW 201930Z 18009G14KT 38/15 A2993 RMK A01 T03760147  RH  027%=      5-min Rain = 0
KLBW 201935Z 16010G16KT 37/15 A2993 RMK A01 T03720151  RH  028%=      5-min Rain = 0
KLBW 201940Z 17009G15KT 37/15 A2992 RMK A01 T03730151  RH  028%=      5-min Rain = 0
KLBW 201945Z 18011G16KT 38/15 A2992 RMK A01 T03750149  RH  028%=      5-min Rain = 0
KLBW 201950Z 16010G15KT 38/15 A2992 RMK A01 T03770148  RH  027%=      5-min Rain = 0
KLBW 201955Z 15010G18KT 38/15 A2992 RMK A01 T03760148  RH  027%=      5-min Rain = 0
KLBW 202000Z 15010G15KT 38/15 A2992 RMK A01 T03780147  RH  027%=      5-min Rain = 0
KLBW 202005Z 17013G18KT 38/15 A2992 RMK A01 T03780145  RH  026%=      5-min Rain = 0
KLBW 202010Z 16011KT 38/14 A2992 RMK A01 T03800144  RH  026%=      5-min Rain = 0
KLBW 202015Z 17010G16KT 38/14 A2992 RMK A01 T03790141  RH  025%=      5-min Rain = 0
KLBW 202020Z 17011G18KT 38/14 A2991 RMK A01 T03790142  RH  026%=      5-min Rain = 0
KLBW 202025Z 15010KT 38/14 A2991 RMK A01 T03800141  RH  025%=      5-min Rain = 0
KLBW 202030Z 14009G14KT 38/14 A2991 RMK A01 T03800139  RH  025%=      5-min Rain = 0
KLBW 202035Z 16011KT 38/14 A2991 RMK A01 T03840140  RH  025%=      5-min Rain = 0
KLBW 202040Z 15010KT 38/14 A2991 RMK A01 T03840137  RH  024%=      5-min Rain = 0
KLBW 202045Z 16010G16KT 38/14 A2991 RMK A01 T03830137  RH  024%=      5-min Rain = 0
KLBW 202050Z 16010KT 39/14 A2991 RMK A01 T03850139  RH  024%=      5-min Rain = 0
KLBW 202055Z 18010G15KT 39/14 A2991 RMK A01 T03870137  RH  024%=      5-min Rain = 0
KLBW 202100Z 18009KT 39/13 A299 RMK A01 T03870132  RH  023%=      5-min Rain = 0
KLBW 202105Z 18012G19KT 38/13 A299 RMK A01 T03840133  RH  023%=      5-min Rain = 0
KLBW 202110Z 18009KT 38/13 A299 RMK A01 T03840130  RH  023%=      5-min Rain = 0
KLBW 202115Z 15012G17KT 39/14 A299 RMK A01 T03870136  RH  023%=      5-min Rain = 0
KLBW 202120Z 15009G14KT 39/14 A299 RMK A01 T03880138  RH  024%=      5-min Rain = 0
KLBW 202125Z 16010G15KT 39/13 A299 RMK A01 T03940134  RH  022%=      5-min Rain = 0
KLBW 202130Z 17010KT 39/13 A2989 RMK A01 T03920132  RH  022%=      5-min Rain = 0
KLBW 202135Z 16008KT 39/13 A2989 RMK A01 T03900133  RH  023%=      5-min Rain = 0
KLBW 202140Z 15010G17KT 39/13 A2989 RMK A01 T03920132  RH  022%=      5-min Rain = 0
KLBW 202145Z 16014G23KT 39/12 A2988 RMK A01 T03910123  RH  021%=      5-min Rain = 0
KLBW 202150Z 17011KT 39/12 A2988 RMK A01 T03880122  RH  021%=      5-min Rain = 0
KLBW 202155Z 18011G19KT 39/12 A2988 RMK A01 T03890123  RH  021%=      5-min Rain = 0
KLBW 202200Z 16013G19KT 39/12 A2988 RMK A01 T03880120  RH  021%=      5-min Rain = 0
KLBW 202205Z 17009KT 39/12 A2988 RMK A01 T03900122  RH  021%=      5-min Rain = 0
KLBW 202210Z 16009G14KT 39/12 A2988 RMK A01 T03930121  RH  021%=      5-min Rain = 0
KLBW 202215Z 15010KT 39/12 A2987 RMK A01 T03920118  RH  020%=      5-min Rain = 0
KLBW 202220Z 17011G17KT 39/12 A2987 RMK A01 T03910120  RH  021%=      5-min Rain = 0
KLBW 202225Z 17010KT 39/12 A2987 RMK A01 T03890120  RH  021%=      5-min Rain = 0
KLBW 202230Z 17009KT 39/13 A2987 RMK A01 T03890125  RH  022%=      5-min Rain = 0
KLBW 202235Z 17011G16KT 39/13 A2987 RMK A01 T03900127  RH  022%=      5-min Rain = 0
KLBW 202240Z 18010G15KT 39/13 A2987 RMK A01 T03910129  RH  022%=      5-min Rain = 0
KLBW 202245Z 17011G18KT 39/13 A2987 RMK A01 T03900130  RH  022%=      5-min Rain = 0
KLBW 202250Z 15012G17KT 39/13 A2986 RMK A01 T03880129  RH  022%=      5-min Rain = 0
KLBW 202255Z 17013G22KT 39/13 A2986 RMK A01 T03870127  RH  022%=      5-min Rain = 0
KLBW 202300Z 16012G18KT 39/13 A2986 RMK A01 T03880129  RH  022%=      5-min Rain = 0
KLBW 202305Z 16013G20KT 38/13 A2986 RMK A01 T03840127  RH  022%=      5-min Rain = 0
KLBW 202310Z 16011G19KT 38/13 A2986 RMK A01 T03830125  RH  022%=      5-min Rain = 0
KLBW 202315Z 15012G19KT 38/13 A2986 RMK A01 T03840126  RH  022%=      5-min Rain = 0
KLBW 202320Z 17014G20KT 38/13 A2986 RMK A01 T03830125  RH  022%=      5-min Rain = 0
KLBW 202325Z 16012G17KT 38/12 A2986 RMK A01 T03810123  RH  022%=      5-min Rain = 0
KLBW 202330Z 15013G18KT 38/12 A2986 RMK A01 T03810120  RH  022%=      5-min Rain = 0
KLBW 202335Z 15011G16KT 38/12 A2985 RMK A01 T03810120  RH  022%=      5-min Rain = 0
KLBW 202340Z 15010G17KT 38/12 A2985 RMK A01 T03820121  RH  022%=      5-min Rain = 0
KLBW 202345Z 14012G17KT 38/12 A2985 RMK A01 T03800121  RH  022%=      5-min Rain = 0
KLBW 202350Z 15013KT 38/12 A2985 RMK A01 T03800122  RH  022%=      5-min Rain = 0
KLBW 202355Z 15011G16KT 38/12 A2985 RMK A01 T03790122  RH  022%=      5-min Rain = 0
KLBW 210000Z 17012KT 38/12 A2985 RMK A01 T03800121  RH  022%=      5-min Rain = 0
KLBW 210005Z 15012G18KT 38/12 A2985 RMK A01 T03780117  RH  022%=      5-min Rain = 0
KLBW 210010Z 15010G16KT 38/12 A2985 RMK A01 T03760117  RH  022%=      5-min Rain = 0
KLBW 210015Z 15014G20KT 38/12 A2985 RMK A01 T03750116  RH  022%=      5-min Rain = 0
KLBW 210020Z 15013G19KT 37/12 A2985 RMK A01 T03720115  RH  022%=      5-min Rain = 0
KLBW 210025Z 16012G20KT 37/11 A2985 RMK A01 T03720114  RH  022%=      5-min Rain = 0
KLBW 210030Z 17010KT 37/12 A2985 RMK A01 T03720116  RH  022%=      5-min Rain = 0
KLBW 210035Z 17010G17KT 37/12 A2985 RMK A01 T03720115  RH  022%=      5-min Rain = 0
KLBW 210040Z 17009G14KT 37/12 A2985 RMK A01 T03710115  RH  022%=      5-min Rain = 0
KLBW 210045Z 17010G16KT 37/12 A2985 RMK A01 T03700115  RH  022%=      5-min Rain = 0
KLBW 210050Z 16009G14KT 37/11 A2985 RMK A01 T03690114  RH  022%=      5-min Rain = 0
KLBW 210055Z 17010G16KT 37/11 A2985 RMK A01 T03670114  RH  023%=      5-min Rain = 0
KLBW 210100Z 16008G14KT 37/12 A2985 RMK A01 T03660116  RH  023%=      5-min Rain = 0
KLBW 210105Z 16011KT 36/12 A2985 RMK A01 T03640115  RH  023%=      5-min Rain = 0
KLBW 210110Z 16010G18KT 36/11 A2986 RMK A01 T03620114  RH  023%=      5-min Rain = 0
KLBW 210115Z 16011G16KT 36/11 A2986 RMK A01 T03610111  RH  023%=      5-min Rain = 0
KLBW 210120Z 15010G16KT 36/11 A2986 RMK A01 T03590111  RH  023%=      5-min Rain = 0
KLBW 210125Z 15011G17KT 36/11 A2986 RMK A01 T03580109  RH  023%=      5-min Rain = 0
KLBW 210130Z 15011KT 36/11 A2986 RMK A01 T03560108  RH  023%=      5-min Rain = 0
KLBW 210135Z 16009KT 35/11 A2986 RMK A01 T03540108  RH  023%=      5-min Rain = 0
KLBW 210140Z 16008KT 35/11 A2986 RMK A01 T03520109  RH  024%=      5-min Rain = 0
KLBW 210145Z 16007KT 35/11 A2986 RMK A01 T03490110  RH  024%=      5-min Rain = 0
KLBW 210150Z 16008G13KT 35/11 A2986 RMK A01 T03460110  RH  025%=      5-min Rain = 0
KLBW 210155Z 16008KT 35/11 A2986 RMK A01 T03460109  RH  025%=      5-min Rain = 0
KLBW 210200Z 16008KT 34/11 A2986 RMK A01 T03440110  RH  025%=      5-min Rain = 0
KLBW 210205Z 16008G14KT 34/11 ANAN RMK A01 T03420110  RH  025%=      5-min Rain = 0
KLBW 210210Z 16008KT 34/11 A2987 RMK A01 T03420111  RH  025%=      5-min Rain = 0
KLBW 210215Z 16007KT 34/11 A2987 RMK A01 T03400111  RH  026%=      5-min Rain = 0
KLBW 210220Z 16009G14KT 34/11 A2987 RMK A01 T03390111  RH  026%=      5-min Rain = 0
KLBW 210225Z 16008KT 34/11 A2987 RMK A01 T03380111  RH  026%=      5-min Rain = 0
KLBW 210230Z 16008KT 34/11 A2987 RMK A01 T03360111  RH  026%=      5-min Rain = 0
KLBW 210235Z 16008KT 34/11 A2987 RMK A01 T03350112  RH  027%=      5-min Rain = 0
KLBW 210240Z 16007KT 33/11 A2987 RMK A01 T03330113  RH  027%=      5-min Rain = 0
KLBW 210245Z 16008KT 33/11 A2987 RMK A01 T03320112  RH  027%=      5-min Rain = 0
KLBW 210250Z 16008KT 33/11 A2987 RMK A01 T03310112  RH  027%=      5-min Rain = 0
KLBW 210255Z 17009KT 33/11 A2987 RMK A01 T03310110  RH  027%=      5-min Rain = 0
KLBW 210300Z 16009G18KT 33/11 A2988 RMK A01 T03330110  RH  027%=      5-min Rain = 0
KLBW 210305Z 16009G15KT 33/11 A2988 RMK A01 T03310112  RH  027%=      5-min Rain = 0
KLBW 210310Z 16011G18KT 33/11 A2988 RMK A01 T03310114  RH  028%=      5-min Rain = 0
KLBW 210315Z 16010KT 33/12 A2988 RMK A01 T03300116  RH  028%=      5-min Rain = 0
KLBW 210320Z 16011G17KT 33/12 A2988 RMK A01 T03290118  RH  029%=      5-min Rain = 0
KLBW 210325Z 17010G15KT 33/12 A2989 RMK A01 T03270119  RH  029%=      5-min Rain = 0
KLBW 210330Z 16011KT 33/12 A2989 RMK A01 T03250120  RH  030%=      5-min Rain = 0
KLBW 210335Z 16011G16KT 32/12 A2989 RMK A01 T03240122  RH  030%=      5-min Rain = 0
KLBW 210340Z 16012G19KT 32/12 A2989 RMK A01 T03240123  RH  031%=      5-min Rain = 0
KLBW 210345Z 16013G20KT 32/12 A299 RMK A01 T03230124  RH  031%=      5-min Rain = 0
KLBW 210350Z 16015G22KT 32/12 A299 RMK A01 T03240124  RH  031%=      5-min Rain = 0
KLBW 210355Z 16015G22KT 32/12 A2991 RMK A01 T03240124  RH  031%=      5-min Rain = 0
KLBW 210400Z 16013G19KT 32/12 A2991 RMK A01 T03230124  RH  031%=      5-min Rain = 0
KLBW 210405Z 16013G20KT 32/12 A2991 RMK A01 T03220122  RH  031%=      5-min Rain = 0
KLBW 210410Z 17015G21KT 32/12 A2991 RMK A01 T03220122  RH  031%=      5-min Rain = 0
KLBW 210415Z 17012G19KT 32/12 A2992 RMK A01 T03210121  RH  031%=      5-min Rain = 0
KLBW 210420Z 16013G20KT 32/12 A2991 RMK A01 T03180120  RH  031%=      5-min Rain = 0
KLBW 210425Z 17013G22KT 32/12 A2992 RMK A01 T03190118  RH  030%=      5-min Rain = 0
KLBW 210430Z 17013G21KT 32/12 A2992 RMK A01 T03160117  RH  031%=      5-min Rain = 0
KLBW 210435Z 17012G18KT 32/12 A2992 RMK A01 T03150116  RH  031%=      5-min Rain = 0
KLBW 210440Z 17012G17KT 31/12 A2992 RMK A01 T03140115  RH  031%=      5-min Rain = 0
KLBW 210445Z 17012G20KT 31/11 A2992 RMK A01 T03130114  RH  030%=      5-min Rain = 0
KLBW 210450Z 17012G18KT 31/11 A2992 RMK A01 T03120112  RH  030%=      5-min Rain = 0
KLBW 210455Z 17013G20KT 31/11 A2993 RMK A01 T03120111  RH  030%=      5-min Rain = 0

Page generated in 0.0096 seconds.